createdAt,value
2023-02-15T00:00:13.594Z,35.83
2023-02-15T00:02:42.739Z,37.70
2023-02-15T00:05:10.154Z,36.67
2023-02-15T00:07:37.125Z,36.97
2023-02-15T00:10:05.254Z,36.60
2023-02-15T00:12:33.168Z,36.90
2023-02-15T00:15:02.088Z,36.55
2023-02-15T00:17:30.701Z,36.22
2023-02-15T00:19:57.478Z,36.28
2023-02-15T00:22:29.792Z,35.45
2023-02-15T00:24:56.629Z,35.47
2023-02-15T00:27:23.592Z,35.97
2023-02-15T00:29:50.548Z,35.03
2023-02-15T00:32:17.494Z,34.88
2023-02-15T00:34:44.454Z,35.72
2023-02-15T00:37:11.281Z,36.75
2023-02-15T00:39:39.195Z,35.70
2023-02-15T00:42:06.479Z,35.42
2023-02-15T00:44:33.308Z,36.35
2023-02-15T00:47:00.412Z,34.85
2023-02-15T00:49:27.245Z,36.13
2023-02-15T00:51:54.519Z,36.53
2023-02-15T00:54:21.658Z,36.10
2023-02-15T00:56:49.823Z,35.97
2023-02-15T00:59:16.671Z,35.03
2023-02-15T01:01:43.587Z,34.58
2023-02-15T01:04:16.179Z,36.15
2023-02-15T01:09:13.583Z,35.42
2023-02-15T01:11:40.452Z,36.78
2023-02-15T01:14:10.021Z,37.13
2023-02-15T01:16:39.510Z,37.17
2023-02-15T01:19:07.233Z,36.45
2023-02-15T01:21:35.552Z,37.17
2023-02-15T01:24:03.490Z,36.80
2023-02-15T01:26:31.954Z,36.72
2023-02-15T01:28:59.331Z,36.08
2023-02-15T01:31:28.277Z,35.80
2023-02-15T01:33:55.190Z,35.28
2023-02-15T01:36:23.044Z,34.67
2023-02-15T01:38:50.427Z,34.97
2023-02-15T01:41:27.422Z,33.35
2023-02-15T01:44:02.855Z,33.80
2023-02-15T01:46:40.960Z,34.10
2023-02-15T01:49:18.477Z,34.72
2023-02-15T01:51:49.593Z,34.25
2023-02-15T01:54:28.758Z,34.05
2023-02-15T01:57:03.497Z,33.25
2023-02-15T01:59:34.836Z,34.03
2023-02-15T02:02:06.116Z,36.85
2023-02-15T02:04:40.731Z,35.10
2023-02-15T02:07:10.521Z,34.35
2023-02-15T02:09:38.999Z,34.00
2023-02-15T02:12:06.592Z,34.28
2023-02-15T02:14:34.064Z,33.10
2023-02-15T02:17:40.547Z,34.08
2023-02-15T02:20:38.218Z,34.53
2023-02-15T02:23:42.069Z,34.10
2023-02-15T02:26:31.711Z,33.75
2023-02-15T02:29:07.957Z,33.17
2023-02-15T02:32:13.130Z,33.53
2023-02-15T02:34:52.196Z,33.40
2023-02-15T02:37:31.450Z,33.78
2023-02-15T02:40:17.938Z,34.53
2023-02-15T02:43:12.290Z,34.67
2023-02-15T02:45:46.779Z,34.40
2023-02-15T02:48:21.088Z,34.67
2023-02-15T02:50:49.828Z,35.03
2023-02-15T02:53:17.007Z,36.13
2023-02-15T02:56:15.075Z,35.58
2023-02-15T02:59:00.303Z,35.35
2023-02-15T03:01:38.984Z,34.90
2023-02-15T03:04:13.735Z,34.40
2023-02-15T03:06:58.552Z,35.00
2023-02-15T03:09:45.025Z,35.17
2023-02-15T03:12:25.272Z,34.85
2023-02-15T03:15:10.093Z,35.17
2023-02-15T03:17:43.704Z,35.58
2023-02-15T03:20:33.352Z,34.28
2023-02-15T03:23:12.367Z,35.63
2023-02-15T03:25:44.123Z,35.15
2023-02-15T03:28:16.180Z,37.20
2023-02-15T03:30:50.775Z,36.42
2023-02-15T03:33:19.383Z,36.15
2023-02-15T03:35:51.462Z,36.88
2023-02-15T03:38:26.611Z,36.72
2023-02-15T03:41:12.111Z,35.42
2023-02-15T03:43:44.324Z,35.08
2023-02-15T03:46:20.036Z,36.17
2023-02-15T03:48:54.527Z,36.70
2023-02-15T03:51:35.030Z,36.30
2023-02-15T03:54:13.814Z,35.58
2023-02-15T03:57:03.252Z,34.65
2023-02-15T03:59:49.990Z,35.30
2023-02-15T04:02:29.478Z,35.50
2023-02-15T04:04:56.584Z,35.58
2023-02-15T04:07:23.484Z,33.67
2023-02-15T04:10:11.164Z,33.58
2023-02-15T04:12:40.014Z,33.88
2023-02-15T04:15:31.732Z,35.42
2023-02-15T04:17:58.795Z,35.05
2023-02-15T04:20:48.162Z,34.38
2023-02-15T04:23:34.803Z,35.85
2023-02-15T04:26:08.392Z,35.33
2023-02-15T04:28:35.193Z,33.85
2023-02-15T04:31:27.159Z,36.45
2023-02-15T04:33:54.012Z,33.10
2023-02-15T04:36:21.932Z,34.85
2023-02-15T04:38:48.808Z,34.17
2023-02-15T04:41:16.656Z,34.53
2023-02-15T04:43:43.613Z,33.47
2023-02-15T04:46:10.568Z,33.13
2023-02-15T04:48:39.191Z,32.45
2023-02-15T04:51:11.737Z,33.83
2023-02-15T04:56:05.528Z,33.10
2023-02-15T04:58:32.594Z,34.70
2023-02-15T05:01:00.681Z,36.35
2023-02-15T05:03:31.930Z,33.58
2023-02-15T05:06:00.210Z,34.58
2023-02-15T05:08:28.760Z,35.83
2023-02-15T05:10:56.689Z,35.30
2023-02-15T05:13:24.220Z,34.15
2023-02-15T05:15:53.608Z,35.95
2023-02-15T05:18:22.037Z,34.38
2023-02-15T05:20:50.551Z,36.40
2023-02-15T05:23:18.474Z,34.63
2023-02-15T05:26:10.999Z,36.55
2023-02-15T05:28:39.299Z,35.00
2023-02-15T05:31:06.376Z,35.85
2023-02-15T05:33:34.478Z,36.58
2023-02-15T05:36:03.077Z,35.50
2023-02-15T05:38:30.534Z,35.67
2023-02-15T05:40:58.769Z,34.15
2023-02-15T05:43:26.293Z,36.20
2023-02-15T05:45:56.087Z,35.30
2023-02-15T05:48:26.578Z,35.58
2023-02-15T05:51:16.938Z,34.65
2023-02-15T05:53:46.227Z,34.67
2023-02-15T05:56:13.488Z,35.28
2023-02-15T05:58:41.822Z,36.30
2023-02-15T06:01:19.803Z,34.38
2023-02-15T06:03:47.156Z,34.55
2023-02-15T06:06:16.553Z,34.30
2023-02-15T06:08:45.622Z,35.45
2023-02-15T06:11:12.540Z,33.20
2023-02-15T06:13:41.414Z,31.55
2023-02-15T06:16:09.346Z,33.13
2023-02-15T06:18:37.301Z,32.83
2023-02-15T06:21:05.279Z,34.83
2023-02-15T06:23:32.222Z,31.67
2023-02-15T06:25:59.170Z,30.90
2023-02-15T06:28:28.881Z,32.72
2023-02-15T06:30:56.100Z,31.55
2023-02-15T06:33:23.928Z,31.08
2023-02-15T06:35:50.801Z,31.17
2023-02-15T06:38:18.684Z,30.80
2023-02-15T06:40:46.620Z,31.17
2023-02-15T06:43:13.775Z,30.35
2023-02-15T06:45:42.780Z,32.22
2023-02-15T06:48:10.755Z,31.35
2023-02-15T06:50:40.052Z,30.40
2023-02-15T06:53:15.595Z,31.60
2023-02-15T06:55:44.242Z,31.15
2023-02-15T06:58:11.092Z,31.65
2023-02-15T07:00:39.891Z,32.00
2023-02-15T07:03:10.221Z,32.50
2023-02-15T07:05:45.263Z,31.10
2023-02-15T07:08:22.099Z,29.33
2023-02-15T07:10:54.388Z,30.77
2023-02-15T07:13:22.523Z,29.60
2023-02-15T07:15:50.377Z,31.20
2023-02-15T07:18:17.245Z,29.55
2023-02-15T07:20:44.117Z,30.90
2023-02-15T07:23:12.196Z,34.03
2023-02-15T07:25:39.085Z,30.98
2023-02-15T07:28:07.899Z,30.80
2023-02-15T07:30:35.392Z,30.05
2023-02-15T07:33:24.042Z,30.25
2023-02-15T07:36:00.003Z,29.70
2023-02-15T07:38:33.461Z,31.42
2023-02-15T07:41:01.814Z,31.67
2023-02-15T07:43:30.335Z,30.67
2023-02-15T07:46:07.036Z,31.27
2023-02-15T07:48:34.961Z,29.25
2023-02-15T07:51:13.697Z,30.95
2023-02-15T07:53:46.294Z,30.60
2023-02-15T07:56:15.301Z,30.02
2023-02-15T07:58:55.496Z,29.30
2023-02-15T08:01:30.329Z,27.00
2023-02-15T08:04:02.634Z,26.83
2023-02-15T08:06:34.631Z,27.08
2023-02-15T08:12:43.947Z,25.95
2023-02-15T08:15:15.144Z,22.42
2023-02-15T08:17:43.737Z,22.15
2023-02-15T08:20:17.247Z,22.55
2023-02-15T08:22:46.687Z,24.48
2023-02-15T08:25:15.245Z,23.92
2023-02-15T08:27:43.267Z,20.33
2023-02-15T08:30:13.849Z,23.30
2023-02-15T08:35:37.648Z,24.20
2023-02-15T08:38:16.918Z,24.05
2023-02-15T08:40:44.361Z,25.67
2023-02-15T08:43:13.523Z,22.42
2023-02-15T08:45:44.486Z,23.02
2023-02-15T08:48:14.009Z,23.35
2023-02-15T08:50:43.971Z,23.60
2023-02-15T08:53:12.436Z,21.45
2023-02-15T08:55:41.655Z,23.92
2023-02-15T08:58:08.792Z,22.35
2023-02-15T09:00:41.489Z,21.98
2023-02-15T09:03:15.464Z,21.58
2023-02-15T09:05:43.685Z,22.77
2023-02-15T09:08:13.142Z,24.13
2023-02-15T09:10:40.554Z,23.55
2023-02-15T09:13:30.582Z,20.10
2023-02-15T09:20:09.573Z,23.83
2023-02-15T09:23:47.151Z,22.45
2023-02-15T09:26:20.677Z,21.85
2023-02-15T09:28:52.316Z,19.08
2023-02-15T09:31:25.070Z,24.83
2023-02-15T09:33:56.509Z,20.58
2023-02-15T09:36:40.144Z,24.50
2023-02-15T09:39:17.246Z,24.70
2023-02-15T09:42:16.842Z,24.33
2023-02-15T09:45:09.883Z,23.98
2023-02-15T09:50:27.183Z,25.05
2023-02-15T09:53:25.923Z,24.98
2023-02-15T09:56:21.204Z,25.10
2023-02-15T09:58:52.485Z,23.27
2023-02-15T10:01:48.078Z,24.13
2023-02-15T10:04:43.096Z,23.30
2023-02-15T10:07:15.874Z,23.48
2023-02-15T10:10:17.158Z,24.33
2023-02-15T10:12:55.599Z,24.33
2023-02-15T10:15:52.974Z,23.95
2023-02-15T10:18:46.333Z,23.85
2023-02-15T10:21:44.659Z,24.20
2023-02-15T10:24:14.689Z,24.02
2023-02-15T10:26:50.226Z,25.90
2023-02-15T10:29:21.129Z,24.67
2023-02-15T10:32:14.355Z,25.35
2023-02-15T10:35:09.790Z,26.00
2023-02-15T10:38:17.703Z,26.58
2023-02-15T10:41:19.006Z,27.27
2023-02-15T10:44:06.545Z,26.67
2023-02-15T10:46:47.397Z,27.25
2023-02-15T10:49:56.367Z,28.50
2023-02-15T10:52:52.965Z,27.58
2023-02-15T10:55:42.416Z,28.33
2023-02-15T10:58:48.637Z,25.52
2023-02-15T11:01:27.711Z,26.77
2023-02-15T11:04:28.329Z,24.48
2023-02-15T11:07:04.004Z,24.30
2023-02-15T11:10:13.545Z,25.92
2023-02-15T11:12:46.904Z,26.80
2023-02-15T11:15:37.802Z,26.63
2023-02-15T11:18:33.759Z,27.17
2023-02-15T11:21:25.324Z,25.55
2023-02-15T11:23:57.155Z,25.98
2023-02-15T11:26:36.857Z,25.30
2023-02-15T11:29:27.582Z,26.65
2023-02-15T11:32:04.386Z,26.37
2023-02-15T11:34:41.671Z,27.25
2023-02-15T11:37:14.377Z,27.20
2023-02-15T11:39:48.412Z,27.90
2023-02-15T11:42:24.700Z,28.17
2023-02-15T11:45:30.391Z,28.95
2023-02-15T11:48:02.182Z,27.15
2023-02-15T11:50:32.823Z,28.33
2023-02-15T11:53:05.539Z,27.88
2023-02-15T11:55:34.275Z,29.98
2023-02-15T11:58:30.773Z,29.08
2023-02-15T12:06:28.595Z,31.33
2023-02-15T12:09:23.567Z,29.80
2023-02-15T12:11:54.508Z,28.88
2023-02-15T12:14:22.217Z,30.30
2023-02-15T12:16:56.395Z,30.00
2023-02-15T12:19:51.905Z,28.00
2023-02-15T12:22:53.312Z,28.25
2023-02-15T12:25:55.712Z,32.40
2023-02-15T12:28:41.239Z,31.48
2023-02-15T12:31:40.664Z,31.45
2023-02-15T12:34:40.694Z,32.40
2023-02-15T12:37:21.492Z,32.92
2023-02-15T12:39:55.791Z,30.15
2023-02-15T12:42:24.860Z,31.65
2023-02-15T12:45:03.731Z,31.05
2023-02-15T12:47:36.959Z,32.13
2023-02-15T12:50:18.088Z,33.47
2023-02-15T12:52:50.649Z,32.47
2023-02-15T12:55:28.241Z,32.40
2023-02-15T12:58:32.423Z,32.58
2023-02-15T13:01:33.219Z,32.22
2023-02-15T13:04:07.606Z,32.40
2023-02-15T13:06:37.405Z,32.63
2023-02-15T13:09:33.541Z,31.70
2023-02-15T13:12:55.458Z,31.73
2023-02-15T13:16:15.985Z,31.73
2023-02-15T13:18:47.960Z,30.15
2023-02-15T13:21:25.097Z,31.23
2023-02-15T13:24:04.846Z,31.48
2023-02-15T13:26:33.187Z,28.92
2023-02-15T13:29:09.624Z,30.70
2023-02-15T13:31:37.505Z,30.27
2023-02-15T13:34:26.979Z,31.98
2023-02-15T13:37:12.669Z,31.25
2023-02-15T13:39:50.259Z,33.17
2023-02-15T13:42:41.402Z,34.30
2023-02-15T13:45:45.468Z,34.05
2023-02-15T13:48:46.872Z,34.03
2023-02-15T13:54:00.009Z,35.40
2023-02-15T13:57:05.756Z,34.95
2023-02-15T13:59:57.658Z,35.22
2023-02-15T14:02:28.323Z,36.22
2023-02-15T14:05:31.183Z,36.88
2023-02-15T14:12:47.320Z,37.33
2023-02-15T14:15:22.832Z,35.53
2023-02-15T14:18:00.851Z,38.35
2023-02-15T14:21:07.062Z,37.92
2023-02-15T14:23:39.699Z,37.35
2023-02-15T14:26:38.307Z,37.80
2023-02-15T14:29:39.595Z,39.08
2023-02-15T14:32:39.674Z,38.00
2023-02-15T14:35:15.955Z,38.92
2023-02-15T14:38:00.925Z,38.03
2023-02-15T14:41:03.565Z,40.35
2023-02-15T14:43:55.177Z,38.55
2023-02-15T14:46:28.799Z,40.42
2023-02-15T14:49:08.488Z,40.65
2023-02-15T14:51:46.922Z,41.80
2023-02-15T14:54:40.581Z,42.03
2023-02-15T14:57:14.698Z,38.75
2023-02-15T15:00:00.167Z,38.28
2023-02-15T15:02:50.197Z,37.03
2023-02-15T15:05:48.745Z,38.58
2023-02-15T15:08:36.213Z,41.78
2023-02-15T15:11:43.951Z,40.05
2023-02-15T15:14:37.198Z,41.42
2023-02-15T15:17:11.620Z,39.58
2023-02-15T15:19:52.061Z,40.50
2023-02-15T15:22:30.539Z,39.60
2023-02-15T15:25:42.198Z,39.85
2023-02-15T15:28:09.659Z,39.85
2023-02-15T15:30:39.435Z,38.92
2023-02-15T15:33:47.887Z,40.83
2023-02-15T15:36:32.056Z,39.92
2023-02-15T15:39:36.761Z,41.15
2023-02-15T15:42:32.353Z,40.88
2023-02-15T15:45:23.736Z,41.28
2023-02-15T15:48:07.087Z,40.53
2023-02-15T15:51:25.493Z,41.65
2023-02-15T15:53:56.899Z,37.10
2023-02-15T15:56:34.456Z,41.05
2023-02-15T15:59:14.207Z,41.90
2023-02-15T16:01:50.444Z,43.33
2023-02-15T16:04:30.816Z,42.70
2023-02-15T16:06:59.379Z,42.15
2023-02-15T16:09:30.559Z,41.20
2023-02-15T16:12:02.632Z,40.67
2023-02-15T16:14:42.020Z,40.83
2023-02-15T16:17:18.779Z,40.42
2023-02-15T16:19:46.012Z,39.92
2023-02-15T16:22:25.360Z,41.55
2023-02-15T16:25:02.558Z,38.60
2023-02-15T16:27:33.008Z,39.17
2023-02-15T16:30:17.979Z,39.47
2023-02-15T16:32:48.005Z,39.45
2023-02-15T16:35:21.496Z,40.78
2023-02-15T16:37:52.664Z,40.58
2023-02-15T16:40:28.678Z,40.63
2023-02-15T16:43:04.680Z,40.67
2023-02-15T16:48:28.802Z,39.63
2023-02-15T16:51:01.355Z,39.75
2023-02-15T16:53:31.318Z,40.30
2023-02-15T16:56:26.793Z,39.72
2023-02-15T16:59:06.041Z,38.42
2023-02-15T17:01:36.283Z,39.35
2023-02-15T17:04:37.582Z,40.45
2023-02-15T17:07:19.952Z,40.45
2023-02-15T17:09:57.898Z,41.92
2023-02-15T17:12:56.034Z,40.38
2023-02-15T17:15:36.519Z,41.13
2023-02-15T17:18:10.116Z,40.05
2023-02-15T17:20:42.885Z,36.72
2023-02-15T17:23:36.741Z,40.92
2023-02-15T17:26:19.719Z,42.75
2023-02-15T17:28:57.165Z,43.47
2023-02-15T17:31:32.399Z,41.15
2023-02-15T17:34:04.782Z,40.92
2023-02-15T17:36:35.608Z,41.83
2023-02-15T17:39:19.021Z,41.90
2023-02-15T17:41:45.898Z,43.13
2023-02-15T17:44:16.754Z,40.60
2023-02-15T17:46:44.745Z,41.30
2023-02-15T17:49:24.562Z,40.17
2023-02-15T17:51:58.891Z,38.63
2023-02-15T17:54:46.664Z,38.70
2023-02-15T17:57:37.126Z,34.55
2023-02-15T18:00:32.763Z,41.35
2023-02-15T18:03:27.452Z,37.67
2023-02-15T18:06:14.681Z,38.38
2023-02-15T18:09:24.359Z,38.03
2023-02-15T18:11:52.326Z,34.53
2023-02-15T18:14:20.433Z,37.60
2023-02-15T18:16:47.821Z,37.03
2023-02-15T18:19:34.316Z,39.67
2023-02-15T18:22:01.215Z,40.95
2023-02-15T18:24:29.817Z,40.08
2023-02-15T18:26:58.994Z,40.42
2023-02-15T18:29:28.067Z,40.00
2023-02-15T18:31:58.622Z,41.67
2023-02-15T18:34:34.570Z,39.00
2023-02-15T18:39:57.975Z,41.55
2023-02-15T18:43:18.398Z,40.15
2023-02-15T18:45:48.944Z,39.30
2023-02-15T18:48:18.572Z,41.38
2023-02-15T18:50:52.438Z,41.83
2023-02-15T18:53:21.442Z,42.50
2023-02-15T18:55:49.826Z,41.72
2023-02-15T18:58:22.411Z,42.40
2023-02-15T19:03:22.974Z,40.78
2023-02-15T19:08:32.223Z,40.60
2023-02-15T19:11:01.371Z,42.60
2023-02-15T19:13:29.901Z,42.03
2023-02-15T19:16:01.111Z,40.15
2023-02-15T19:18:28.543Z,40.03
2023-02-15T19:20:56.726Z,38.20
2023-02-15T19:23:28.401Z,40.08
2023-02-15T19:26:13.924Z,39.90
2023-02-15T19:28:45.333Z,38.78
2023-02-15T19:31:32.769Z,40.20
2023-02-15T19:34:17.288Z,38.13
2023-02-15T19:36:48.088Z,39.75
2023-02-15T19:39:33.704Z,40.38
2023-02-15T19:42:03.073Z,39.83
2023-02-15T19:44:33.241Z,40.58
2023-02-15T19:47:00.259Z,39.55
2023-02-15T19:49:30.317Z,40.17
2023-02-15T19:51:58.306Z,35.22
2023-02-15T19:54:36.228Z,32.33
2023-02-15T19:57:09.601Z,37.10
2023-02-15T19:59:37.000Z,38.20
2023-02-15T20:02:04.357Z,37.72
2023-02-15T20:04:31.539Z,38.75
2023-02-15T20:07:02.060Z,37.50
2023-02-15T20:09:41.024Z,36.40
2023-02-15T20:12:29.825Z,36.25
2023-02-15T20:14:58.314Z,36.38
2023-02-15T20:17:25.652Z,39.00
2023-02-15T20:19:52.698Z,38.05
2023-02-15T20:22:41.967Z,38.17
2023-02-15T20:30:17.318Z,38.20
2023-02-15T20:36:15.697Z,37.50
2023-02-15T20:39:37.906Z,37.03
2023-02-15T20:42:27.785Z,36.42
2023-02-15T20:49:05.595Z,37.63
2023-02-15T20:52:01.459Z,38.33
2023-02-15T20:54:58.984Z,37.78
2023-02-15T20:57:32.011Z,37.50
2023-02-15T21:00:19.717Z,39.60
2023-02-15T21:03:28.824Z,37.33
2023-02-15T21:06:52.527Z,36.97
2023-02-15T21:10:02.454Z,39.53
2023-02-15T21:12:43.604Z,38.33
2023-02-15T21:19:14.307Z,37.47
2023-02-15T21:22:23.756Z,36.85
2023-02-15T21:25:33.039Z,36.05
2023-02-15T21:28:54.418Z,34.45
2023-02-15T21:35:38.908Z,36.45
2023-02-15T21:38:21.894Z,34.22
2023-02-15T21:41:22.843Z,34.95
2023-02-15T21:44:18.532Z,37.45
2023-02-15T21:50:30.402Z,32.50
2023-02-15T21:53:47.571Z,33.88
2023-02-15T21:56:19.468Z,34.13
2023-02-15T21:58:48.376Z,32.72
2023-02-15T22:01:28.150Z,30.17
2023-02-15T22:03:57.709Z,30.65
2023-02-15T22:06:28.496Z,35.00
2023-02-15T22:08:55.958Z,33.65
2023-02-15T22:11:25.883Z,36.65
2023-02-15T22:13:53.658Z,36.30
2023-02-15T22:16:23.584Z,38.30
2023-02-15T22:18:50.714Z,34.97
2023-02-15T22:21:19.296Z,30.50
2023-02-15T22:23:47.312Z,29.40
2023-02-15T22:26:17.680Z,27.00
2023-02-15T22:28:45.901Z,35.65
2023-02-15T22:31:19.102Z,36.40
2023-02-15T22:33:46.052Z,37.80
2023-02-15T22:36:27.017Z,37.88
2023-02-15T22:38:56.705Z,38.55
2023-02-15T22:41:53.449Z,36.30
2023-02-15T22:44:27.118Z,35.90
2023-02-15T22:46:55.645Z,31.55
2023-02-15T22:49:23.750Z,38.42
2023-02-15T22:51:53.163Z,36.30
2023-02-15T22:54:20.396Z,36.88
2023-02-15T22:56:54.715Z,36.08
2023-02-15T22:59:28.841Z,34.97
2023-02-15T23:01:57.148Z,36.08
2023-02-15T23:04:29.227Z,30.73
2023-02-15T23:06:59.677Z,37.03
2023-02-15T23:09:27.157Z,36.13
2023-02-15T23:11:54.396Z,37.00
2023-02-15T23:14:27.497Z,37.75
2023-02-15T23:16:55.116Z,39.05
2023-02-15T23:19:22.215Z,37.50
2023-02-15T23:21:49.275Z,36.55
2023-02-15T23:24:29.595Z,39.75
2023-02-15T23:27:20.003Z,36.65
2023-02-15T23:29:49.003Z,37.35
2023-02-15T23:32:16.191Z,40.13
2023-02-15T23:34:43.478Z,41.67
2023-02-15T23:37:16.186Z,34.10
2023-02-15T23:40:03.588Z,40.25
2023-02-15T23:42:33.603Z,39.95
2023-02-15T23:45:00.870Z,40.13
2023-02-15T23:47:51.805Z,36.88
2023-02-15T23:50:25.255Z,36.25
2023-02-15T23:52:55.810Z,39.53
2023-02-15T23:55:25.197Z,40.83
2023-02-15T23:57:51.994Z,38.90
